Time;durP1;ratioP1;P1;durP2;ratioP2;P2;SDS_P1;SDS_P2;PMS_P1;PMS_P2;Temp;Humidity;BMP_temperature;BMP_pressure;BME280_temperature;BME280_humidity;BME280_pressure;Samples;Min_cycle;Max_cycle;Signal;HPM_P1;HPM_P2
2021/07/08 00:02:08;;;;;;;2.47;2.38;;;;;;;21.51;64.37;98836.09;5013693;28;20046;-68
2021/07/08 00:04:37;;;;;;;2.33;2.22;;;;;;;21.45;64.81;98839.06;5013545;28;20029;-68
2021/07/08 00:07:03;;;;;;;2.60;2.45;;;;;;;21.38;64.67;98832.53;5014088;28;20077;-68
2021/07/08 00:09:28;;;;;;;5.03;2.38;;;;;;;21.40;64.61;98838.50;5014421;28;20026;-68
2021/07/08 00:11:54;;;;;;;2.50;2.40;;;;;;;21.42;64.44;98841.88;5011858;28;20045;-68
2021/07/08 00:14:19;;;;;;;2.53;2.42;;;;;;;21.32;64.97;98840.72;5013650;28;20033;-68
2021/07/08 00:16:45;;;;;;;2.53;2.33;;;;;;;21.39;64.54;98844.63;5013539;28;20058;-68
2021/07/08 00:19:10;;;;;;;3.25;2.35;;;;;;;21.36;64.85;98842.22;5014106;28;20037;-68
2021/07/08 00:21:36;;;;;;;2.17;2.08;;;;;;;21.30;64.91;98842.59;5013007;28;20728;-68
2021/07/08 00:24:03;;;;;;;2.65;2.45;;;;;;;21.37;65.05;98838.69;5013184;28;20026;-67
2021/07/08 00:26:28;;;;;;;2.05;1.95;;;;;;;21.30;65.16;98839.97;5013879;28;20311;-68
2021/07/08 00:28:54;;;;;;;2.50;2.30;;;;;;;21.21;65.32;98843.13;5014114;28;20036;-68
2021/07/08 00:31:20;;;;;;;2.60;2.40;;;;;;;21.22;65.02;98844.78;5012781;28;20044;-69
2021/07/08 00:33:47;;;;;;;4.50;2.25;;;;;;;21.33;64.78;98850.22;5013765;28;20034;-68
2021/07/08 00:36:12;;;;;;;2.40;2.20;;;;;;;21.25;65.19;98852.44;5013516;28;20041;-69
2021/07/08 00:38:38;;;;;;;3.78;2.45;;;;;;;21.28;64.84;98860.94;5013291;28;20376;-69
2021/07/08 00:41:03;;;;;;;2.05;2.00;;;;;;;21.21;65.08;98862.22;5012382;28;20034;-68
2021/07/08 00:43:30;;;;;;;2.50;2.33;;;;;;;21.16;65.35;98861.66;5013406;28;20026;-68
2021/07/08 00:45:57;;;;;;;2.92;2.50;;;;;;;21.06;65.69;98857.84;5013232;28;20061;-69
2021/07/08 00:48:22;;;;;;;3.13;2.03;;;;;;;20.97;65.86;98861.81;5013343;28;20032;-68
2021/07/08 00:50:48;;;;;;;2.67;2.42;;;;;;;20.96;65.75;98862.75;5012138;28;20508;-68
2021/07/08 00:53:19;;;;;;;2.58;2.47;;;;;;;20.94;66.05;98863.78;5011875;28;20344;-68
2021/07/08 00:55:52;;;;;;;2.17;2.08;;;;;;;20.92;65.95;98869.06;5012419;28;20426;-69
2021/07/08 00:58:18;;;;;;;2.00;1.90;;;;;;;20.85;66.23;98867.75;5012668;28;20169;-68
2021/07/08 01:00:44;;;;;;;2.55;2.35;;;;;;;20.79;66.52;98867.28;5012302;28;20045;-68
2021/07/08 01:03:12;;;;;;;2.15;2.05;;;;;;;20.76;66.48;98860.44;5011824;28;20077;-67
2021/07/08 01:05:41;;;;;;;2.42;2.33;;;;;;;20.75;66.50;98863.16;5011958;28;20040;-69
2021/07/08 01:08:07;;;;;;;2.63;2.22;;;;;;;20.81;66.28;98875.81;5011357;28;20030;-67
2021/07/08 01:10:33;;;;;;;2.33;2.22;;;;;;;20.70;66.75;98873.00;5012530;28;20084;-68
2021/07/08 01:12:59;;;;;;;2.15;2.05;;;;;;;20.65;67.14;98870.66;5011986;28;20034;-68
2021/07/08 01:15:25;;;;;;;3.00;1.95;;;;;;;20.62;66.99;98868.22;5012275;28;20029;-68
2021/07/08 01:17:51;;;;;;;2.70;2.08;;;;;;;20.61;66.90;98863.94;5010852;28;20046;-68
2021/07/08 01:20:19;;;;;;;2.13;2.03;;;;;;;20.59;66.85;98867.53;5012310;28;20041;-68
2021/07/08 01:22:48;;;;;;;3.85;1.85;;;;;;;20.52;67.31;98862.66;5011508;28;20464;-69
2021/07/08 01:25:15;;;;;;;2.78;2.22;;;;;;;20.49;67.62;98856.81;5012505;28;20053;-68
2021/07/08 01:27:40;;;;;;;2.17;2.08;;;;;;;20.42;68.64;98858.88;5011852;28;20018;-69
2021/07/08 01:30:08;;;;;;;2.60;2.40;;;;;;;20.34;69.15;98844.59;5011964;28;20041;-69
2021/07/08 01:32:34;;;;;;;2.42;2.33;;;;;;;20.28;69.00;98860.56;5010209;28;20427;-69
2021/07/08 01:35:00;;;;;;;2.22;2.13;;;;;;;20.27;68.66;98869.28;5027770;28;20164;-69
2021/07/08 01:37:26;;;;;;;2.58;2.38;;;;;;;20.31;68.00;98870.81;4994329;28;20029;-68
2021/07/08 01:39:52;;;;;;;2.25;2.15;;;;;;;20.38;67.93;98862.59;5011404;28;20053;-67
2021/07/08 01:42:17;;;;;;;2.33;2.00;;;;;;;20.29;68.14;98854.41;5010652;28;20294;-68
2021/07/08 01:44:43;;;;;;;3.80;2.60;;;;;;;20.26;67.98;98862.38;5011400;28;20026;-68
2021/07/08 01:47:08;;;;;;;2.13;2.03;;;;;;;20.20;68.26;98860.13;5011578;28;20040;-68
2021/07/08 01:49:34;;;;;;;2.60;2.08;;;;;;;20.22;68.42;98866.06;5012121;28;20363;-68
2021/07/08 01:52:00;;;;;;;2.22;2.13;;;;;;;20.19;68.11;98850.63;5011371;28;20192;-68
2021/07/08 01:54:26;;;;;;;2.65;2.28;;;;;;;20.15;68.71;98855.16;5011990;28;20046;-68
2021/07/08 01:56:51;;;;;;;3.45;2.15;;;;;;;20.04;68.85;98862.69;4986577;28;20026;-68
2021/07/08 01:59:17;;;;;;;2.42;2.33;;;;;;;20.02;69.13;98864.56;5011303;28;20085;-68
2021/07/08 02:01:42;;;;;;;2.25;2.13;;;;;;;20.04;68.92;98867.91;5011798;28;20030;-68
2021/07/08 02:04:07;;;;;;;1.88;1.80;;;;;;;20.10;68.73;98865.00;5011795;28;20080;-68
2021/07/08 02:06:33;;;;;;;2.25;2.15;;;;;;;20.04;68.95;98873.94;5011563;28;20038;-68
2021/07/08 02:08:59;;;;;;;2.38;2.15;;;;;;;20.09;68.67;98865.91;5011072;28;20372;-68
2021/07/08 02:11:24;;;;;;;2.25;2.05;;;;;;;19.96;69.60;98864.88;5012252;28;20036;-68
2021/07/08 02:13:50;;;;;;;2.97;1.83;;;;;;;19.84;70.22;98866.38;5011779;28;20112;-69
2021/07/08 02:16:16;;;;;;;2.35;2.15;;;;;;;19.94;69.64;98869.34;5015428;28;20076;-69
2021/07/08 02:18:44;;;;;;;2.22;2.10;;;;;;;19.94;69.96;98871.94;5014887;28;20026;-69
2021/07/08 02:21:11;;;;;;;2.30;2.20;;;;;;;19.93;70.26;98878.06;5015197;28;20108;-69
2021/07/08 02:23:37;;;;;;;2.35;2.15;;;;;;;19.83;70.20;98876.84;5014877;28;20030;-69
2021/07/08 02:26:07;;;;;;;4.28;2.25;;;;;;;19.82;70.07;98877.75;5014332;28;20038;-69
2021/07/08 02:28:33;;;;;;;2.83;2.15;;;;;;;19.71;70.63;98874.91;5015020;28;20036;-69
2021/07/08 02:30:59;;;;;;;2.38;2.28;;;;;;;19.63;70.61;98870.09;5015153;28;20034;-69
2021/07/08 02:33:26;;;;;;;2.58;2.47;;;;;;;19.60;70.92;98881.47;5015077;28;20080;-69
2021/07/08 02:35:52;;;;;;;2.30;2.10;;;;;;;19.55;71.20;98896.50;5014846;28;20175;-68
2021/07/08 02:38:18;;;;;;;2.55;2.45;;;;;;;19.64;70.69;98894.34;5014619;28;20044;-68
2021/07/08 02:40:43;;;;;;;2.75;2.45;;;;;;;19.52;71.20;98891.44;5014790;28;20462;-68
2021/07/08 02:43:09;;;;;;;1.98;1.85;;;;;;;19.47;71.46;98892.63;5014235;28;20033;-68
2021/07/08 02:45:38;;;;;;;2.50;2.30;;;;;;;19.45;71.44;98900.47;5016005;28;20636;-68
2021/07/08 02:48:07;;;;;;;2.20;2.10;;;;;;;19.44;71.79;98908.34;5015324;28;20283;-68
2021/07/08 02:50:34;;;;;;;2.30;2.20;;;;;;;19.44;71.66;98908.34;5015300;28;20040;-69
2021/07/08 02:53:00;;;;;;;2.90;2.67;;;;;;;19.39;71.95;98911.16;4997313;28;20084;-69
2021/07/08 02:55:26;;;;;;;2.22;2.10;;;;;;;19.37;71.86;98910.41;5015140;28;20921;-68
2021/07/08 02:57:51;;;;;;;2.30;2.10;;;;;;;19.37;71.81;98912.16;5015032;28;20033;-68
2021/07/08 03:00:20;;;;;;;4.30;3.33;;;;;;;19.57;70.85;98914.63;5013848;28;20038;-68
2021/07/08 03:02:46;;;;;;;2.20;1.92;;;;;;;19.69;70.43;98918.38;5014101;28;20042;-68
2021/07/08 03:05:12;;;;;;;3.15;2.35;;;;;;;19.77;69.85;98917.06;5014011;28;20034;-68
2021/07/08 03:07:38;;;;;;;2.05;1.95;;;;;;;19.82;69.52;98909.00;5014946;28;20054;-68
2021/07/08 03:10:06;;;;;;;1.75;1.65;;;;;;;19.74;70.02;98912.00;5013205;28;20030;-68
2021/07/08 03:12:31;;;;;;;6.47;2.10;;;;;;;19.74;69.45;98906.78;5014647;28;20038;-67
2021/07/08 03:14:57;;;;;;;2.00;1.90;;;;;;;19.71;69.88;98893.09;5014392;28;20034;-68
2021/07/08 03:17:22;;;;;;;3.08;1.90;;;;;;;19.66;69.87;98898.53;5013803;28;20200;-67
2021/07/08 03:19:48;;;;;;;1.85;1.67;;;;;;;19.80;69.19;98890.03;5012545;28;20038;-68
2021/07/08 03:22:13;;;;;;;2.08;1.88;;;;;;;19.87;68.73;98897.44;5012049;28;20060;-68
2021/07/08 03:24:39;;;;;;;2.13;2.03;;;;;;;19.95;68.55;98894.41;5013295;28;20037;-68
2021/07/08 03:27:04;;;;;;;3.20;1.40;;;;;;;19.91;68.59;98891.13;5012859;28;20045;-68
2021/07/08 03:29:30;;;;;;;2.03;1.70;;;;;;;19.86;68.58;98889.72;5012035;28;20030;-68
2021/07/08 03:31:55;;;;;;;1.80;1.70;;;;;;;19.93;68.39;98898.88;5013975;28;20034;-68
2021/07/08 03:34:20;;;;;;;2.13;2.03;;;;;;;19.97;68.44;98906.44;5013011;28;20234;-69
2021/07/08 03:36:46;;;;;;;1.90;1.80;;;;;;;19.95;68.34;98895.25;5014232;28;20459;-68
2021/07/08 03:39:11;;;;;;;2.03;1.92;;;;;;;20.00;67.99;98902.81;5012253;28;20169;-68
2021/07/08 03:41:37;;;;;;;3.55;2.35;;;;;;;19.97;68.15;98903.00;5014054;28;20108;-68
2021/07/08 03:44:02;;;;;;;2.67;1.70;;;;;;;19.96;68.24;98901.31;5013954;28;20299;-68
2021/07/08 03:46:28;;;;;;;2.13;2.03;;;;;;;19.90;68.31;98897.25;5010533;28;20030;-68
2021/07/08 03:48:53;;;;;;;2.13;1.98;;;;;;;19.89;68.96;98892.16;5013082;28;20026;-69
2021/07/08 03:51:18;;;;;;;1.85;1.75;;;;;;;19.90;68.74;98897.25;5013025;28;20049;-69
2021/07/08 03:53:44;;;;;;;1.83;1.73;;;;;;;19.92;69.12;98903.25;5013513;28;20030;-69
2021/07/08 03:56:09;;;;;;;2.05;1.95;;;;;;;20.01;68.93;98905.38;5012485;28;20041;-68
2021/07/08 03:58:36;;;;;;;2.25;1.95;;;;;;;20.17;67.85;98899.31;5012467;28;20036;-69
2021/07/08 04:01:02;;;;;;;1.88;1.70;;;;;;;20.25;67.85;98897.16;5013603;28;20025;-68
2021/07/08 04:03:28;;;;;;;2.20;1.60;;;;;;;20.36;66.76;98893.09;5013474;28;20049;-69
2021/07/08 04:05:54;;;;;;;2.55;1.70;;;;;;;20.38;66.81;98903.41;5012102;28;20426;-68
2021/07/08 04:08:20;;;;;;;1.95;1.85;;;;;;;20.47;66.67;98898.56;5012829;28;20030;-69
2021/07/08 04:10:45;;;;;;;1.98;1.67;;;;;;;20.56;67.39;98889.38;5013241;28;20117;-69
2021/07/08 04:13:15;;;;;;;1.95;1.85;;;;;;;20.68;66.28;98896.53;5012865;28;20030;-68
2021/07/08 04:18:20;;;;;;;2.95;2.00;;;;;;;20.88;65.20;98896.22;5066045;28;20420;-69
2021/07/08 04:20:47;;;;;;;2.47;1.85;;;;;;;20.94;64.51;98903.72;5065372;28;20043;-69
2021/07/08 04:23:13;;;;;;;2.13;1.75;;;;;;;20.97;64.32;98906.16;5067459;28;20302;-69
2021/07/08 04:25:40;;;;;;;1.73;1.63;;;;;;;21.16;64.09;98905.97;5060463;28;20336;-69
2021/07/08 04:28:07;;;;;;;2.00;1.80;;;;;;;21.18;64.15;98896.28;5061164;28;20366;-68
2021/07/08 04:30:35;;;;;;;3.45;1.67;;;;;;;21.12;63.95;98896.66;5066348;28;20059;-69
2021/07/08 04:33:00;;;;;;;2.20;2.10;;;;;;;21.29;63.74;98900.91;5065931;28;20039;-69
2021/07/08 04:35:36;;;;;;;2.05;1.80;;;;;;;21.26;63.74;98898.47;5062438;28;20024;-68
2021/07/08 04:38:01;;;;;;;2.25;2.08;;;;;;;21.48;63.33;98898.88;5065201;28;20044;-69
2021/07/08 04:40:27;;;;;;;2.53;1.90;;;;;;;21.41;63.12;98903.63;5065650;28;20029;-69
2021/07/08 04:42:53;;;;;;;1.60;1.50;;;;;;;21.59;62.52;98900.88;5063886;28;20063;-69
2021/07/08 04:45:19;;;;;;;2.20;2.05;;;;;;;21.85;61.75;98900.16;5067265;28;20024;-69
2021/07/08 04:47:46;;;;;;;1.60;1.60;;;;;;;22.01;61.14;98903.53;5064258;28;20289;-69
2021/07/08 04:50:15;;;;;;;2.67;2.30;;;;;;;21.90;61.69;98894.66;5061697;28;20373;-68
2021/07/08 04:52:41;;;;;;;2.00;1.85;;;;;;;22.20;60.78;98895.38;5070975;28;20032;-68
2021/07/08 04:55:09;;;;;;;2.97;1.58;;;;;;;22.43;59.86;98894.81;5066750;28;20021;-68
2021/07/08 04:57:35;;;;;;;1.70;1.60;;;;;;;22.27;60.28;98896.72;5061768;28;20067;-68
2021/07/08 05:00:01;;;;;;;1.58;1.48;;;;;;;22.40;59.78;98895.00;5060424;28;20036;-68
2021/07/08 05:02:27;;;;;;;1.90;1.38;;;;;;;22.47;59.27;98895.44;5065779;28;20028;-68
2021/07/08 05:04:52;;;;;;;1.95;1.85;;;;;;;22.48;59.86;98897.97;5063020;28;20396;-68
2021/07/08 05:07:17;;;;;;;1.85;1.40;;;;;;;22.60;60.11;98884.13;5063345;28;20025;-68
2021/07/08 05:09:43;;;;;;;1.65;1.55;;;;;;;22.57;59.21;98892.16;5067097;28;20286;-68
2021/07/08 05:12:09;;;;;;;1.40;1.30;;;;;;;22.74;59.02;98885.91;5063373;28;20144;-68
2021/07/08 05:14:35;;;;;;;1.92;1.83;;;;;;;23.01;58.69;98888.47;5064863;28;20058;-68
2021/07/08 05:17:02;;;;;;;1.90;1.80;;;;;;;23.16;58.09;98884.88;5061900;28;20051;-67
2021/07/08 05:19:28;;;;;;;1.70;1.60;;;;;;;23.21;59.15;98893.25;5061817;28;20601;-68
2021/07/08 05:21:54;;;;;;;1.90;1.80;;;;;;;23.26;57.92;98882.47;5064010;28;20124;-68
2021/07/08 05:24:21;;;;;;;1.90;1.80;;;;;;;23.22;57.50;98890.53;5065399;28;20071;-68
2021/07/08 05:26:47;;;;;;;1.90;1.80;;;;;;;23.30;56.88;98889.19;5062727;28;20020;-68
2021/07/08 05:29:12;;;;;;;1.88;1.70;;;;;;;22.91;57.78;98890.88;5049932;28;20037;-68
2021/07/08 05:31:38;;;;;;;3.15;2.15;;;;;;;23.27;56.88;98887.59;5050095;28;20098;-67
2021/07/08 05:34:04;;;;;;;2.35;2.20;;;;;;;23.50;56.65;98893.97;5050881;28;20317;-68
2021/07/08 05:36:29;;;;;;;2.22;2.13;;;;;;;23.23;57.25;98893.97;5060409;28;20041;-68
2021/07/08 05:38:55;;;;;;;2.03;1.92;;;;;;;23.36;57.59;98897.47;5050751;28;20562;-68
2021/07/08 05:41:20;;;;;;;2.35;2.25;;;;;;;23.43;58.33;98892.63;5049159;28;20140;-69
2021/07/08 05:43:45;;;;;;;4.00;2.05;;;;;;;23.37;58.10;98888.69;5048383;28;20025;-69
2021/07/08 05:46:11;;;;;;;2.25;2.00;;;;;;;23.34;59.18;98885.44;5052992;28;20028;-69
2021/07/08 05:48:36;;;;;;;1.80;1.70;;;;;;;23.46;57.65;98888.09;5049164;28;20075;-69
2021/07/08 05:51:02;;;;;;;1.80;1.70;;;;;;;;;;5047607;28;20338;-69
2021/07/08 05:53:27;;;;;;;2.28;2.17;;;;;;;23.26;57.14;98883.31;5048829;28;20079;-68
2021/07/08 05:55:52;;;;;;;1.90;1.80;;;;;;;23.23;57.29;98880.91;5047174;28;20028;-69
2021/07/08 05:58:18;;;;;;;2.50;2.40;;;;;;;23.26;57.60;98872.84;5051041;28;20082;-69
2021/07/08 06:00:43;;;;;;;2.72;2.13;;;;;;;23.61;57.38;98880.97;5047412;28;20397;-69
2021/07/08 06:03:09;;;;;;;3.10;2.50;;;;;;;23.83;56.57;98885.59;5047846;28;20041;-68
2021/07/08 06:05:34;;;;;;;3.08;2.88;;;;;;;24.10;55.99;98889.72;5046792;28;20136;-70
2021/07/08 06:07:59;;;;;;;2.78;2.58;;;;;;;24.20;55.39;98884.72;5050361;28;20021;-69
2021/07/08 06:10:25;;;;;;;2.20;2.10;;;;;;;24.41;54.63;98883.19;5048732;28;20028;-70
2021/07/08 06:12:51;;;;;;;3.28;2.67;;;;;;;24.43;54.26;98880.47;5048653;28;20076;-69
2021/07/08 06:15:16;;;;;;;2.80;2.60;;;;;;;24.42;54.27;98882.25;5049657;28;20036;-69
2021/07/08 06:17:42;;;;;;;3.20;3.00;;;;;;;24.53;54.80;98882.31;5050557;28;20310;-70
2021/07/08 06:20:08;;;;;;;3.08;2.88;;;;;;;24.64;55.04;98883.34;5047630;28;20082;-68
2021/07/08 06:22:33;;;;;;;3.15;2.95;;;;;;;24.76;55.09;98877.19;5049915;28;20127;-68
2021/07/08 06:24:59;;;;;;;3.50;2.97;;;;;;;24.65;54.25;98874.53;5047280;28;20029;-68
2021/07/08 06:27:24;;;;;;;3.00;2.63;;;;;;;24.65;53.84;98879.78;5050398;28;20029;-68
2021/07/08 06:29:50;;;;;;;3.60;3.25;;;;;;;24.73;53.77;98877.44;5047338;28;20029;-67
2021/07/08 06:32:18;;;;;;;3.75;3.45;;;;;;;24.84;54.22;98880.09;5044028;28;20393;-68
2021/07/08 06:34:43;;;;;;;3.63;3.42;;;;;;;24.53;55.54;98884.94;5047979;28;20029;-68
2021/07/08 06:37:09;;;;;;;3.35;3.13;;;;;;;24.33;56.41;98885.53;5047590;28;20086;-68
2021/07/08 06:39:34;;;;;;;3.92;3.13;;;;;;;24.65;55.59;98877.16;5046852;28;20106;-69
2021/07/08 06:41:59;;;;;;;3.85;3.53;;;;;;;24.80;53.62;98878.66;5047857;28;20335;-69
2021/07/08 06:44:25;;;;;;;3.33;3.13;;;;;;;24.65;54.44;98870.13;5046149;28;20294;-69
2021/07/08 06:46:51;;;;;;;4.05;3.28;;;;;;;24.58;54.79;98874.13;5046221;28;20033;-69
2021/07/08 06:49:17;;;;;;;3.53;3.30;;;;;;;24.63;54.74;98868.56;5048255;28;20041;-69
2021/07/08 06:51:42;;;;;;;4.10;3.53;;;;;;;24.81;54.62;98877.72;5046408;28;20768;-67
2021/07/08 06:54:08;;;;;;;3.35;3.13;;;;;;;24.92;56.05;98876.00;5043707;28;20029;-67
2021/07/08 06:56:33;;;;;;;3.65;3.45;;;;;;;25.15;54.76;98878.72;5047071;28;20056;-67
2021/07/08 06:58:59;;;;;;;4.88;3.55;;;;;;;25.29;53.66;98883.78;5053205;28;20029;-67
2021/07/08 07:01:25;;;;;;;4.30;3.65;;;;;;;25.40;53.00;98879.38;5044436;28;20346;-66
2021/07/08 07:03:50;;;;;;;3.83;3.53;;;;;;;25.64;51.88;98883.75;5047774;28;20087;-66
2021/07/08 07:06:16;;;;;;;3.60;3.40;;;;;;;25.73;51.57;98886.50;5045128;28;20064;-68
2021/07/08 07:08:42;;;;;;;3.55;3.08;;;;;;;25.69;52.14;98876.34;5047179;28;20032;-66
2021/07/08 07:11:08;;;;;;;4.13;3.60;;;;;;;25.81;51.39;98883.28;5050643;28;20032;-67
2021/07/08 07:13:33;;;;;;;4.13;3.83;;;;;;;25.55;51.83;98876.56;5049115;28;20029;-68
2021/07/08 07:15:59;;;;;;;4.35;3.72;;;;;;;25.79;51.49;98880.81;5045734;28;20040;-67
2021/07/08 07:18:25;;;;;;;3.60;3.40;;;;;;;25.99;51.85;98878.41;5048730;28;20029;-67
2021/07/08 07:20:50;;;;;;;5.20;4.30;;;;;;;25.78;51.43;98879.13;5046188;28;20180;-67
2021/07/08 07:23:16;;;;;;;5.38;4.55;;;;;;;25.94;50.95;98873.50;5046142;28;20112;-69
2021/07/08 07:25:41;;;;;;;4.03;3.72;;;;;;;26.06;50.89;98876.97;5048032;28;20025;-69
2021/07/08 07:28:11;;;;;;;4.13;3.85;;;;;;;26.32;50.65;98870.53;5050448;28;20021;-68
2021/07/08 07:30:37;;;;;;;4.22;3.92;;;;;;;26.33;50.18;98864.31;5044154;28;20041;-68
2021/07/08 07:33:02;;;;;;;3.83;3.53;;;;;;;26.23;50.81;98871.25;5047852;28;20028;-68
2021/07/08 07:35:28;;;;;;;4.28;3.88;;;;;;;26.41;50.55;98876.84;5047908;28;20029;-67
2021/07/08 07:37:53;;;;;;;4.70;4.40;;;;;;;26.67;50.02;98862.44;5048437;28;20031;-68
2021/07/08 07:40:20;;;;;;;4.07;3.75;;;;;;;26.72;49.92;98863.75;5045834;28;20447;-68
2021/07/08 07:42:46;;;;;;;4.15;3.85;;;;;;;26.83;49.63;98858.44;5045625;28;20023;-68
2021/07/08 07:45:12;;;;;;;4.50;4.20;;;;;;;26.80;49.56;98855.22;5045113;28;20040;-68
2021/07/08 07:47:38;;;;;;;5.05;4.72;;;;;;;26.77;49.55;98852.84;5047130;28;20010;-67
2021/07/08 07:50:06;;;;;;;4.93;3.85;;;;;;;26.95;49.54;98851.34;5045125;28;20024;-67
2021/07/08 07:52:32;;;;;;;4.40;4.10;;;;;;;27.08;48.92;98849.38;5045500;28;20554;-69
2021/07/08 07:54:58;;;;;;;5.53;5.03;;;;;;;26.74;50.40;98847.81;5053491;28;20083;-69
2021/07/08 07:57:23;;;;;;;5.10;4.60;;;;;;;27.08;49.97;98846.75;5047075;28;20029;-67
2021/07/08 07:59:50;;;;;;;4.95;4.50;;;;;;;27.29;49.84;98844.13;5044192;28;20083;-68
2021/07/08 08:02:16;;;;;;;4.53;4.15;;;;;;;27.30;50.67;98834.41;5049042;28;20329;-68
2021/07/08 08:04:53;;;;;;;4.82;4.40;;;;;;;27.53;49.84;98836.00;5045976;28;20026;-66
2021/07/08 08:10:03;;;;;;;10.68;7.10;;;;;;;27.88;49.00;98839.03;5045245;28;20048;-66
2021/07/08 08:12:28;;;;;;;7.00;5.03;;;;;;;27.85;47.79;98841.97;5045738;28;20379;-66
2021/07/08 08:14:54;;;;;;;9.60;6.68;;;;;;;27.85;47.78;98836.69;5046340;28;20025;-66
2021/07/08 08:17:20;;;;;;;7.45;5.72;;;;;;;27.84;47.42;98839.47;5049160;28;20051;-67
2021/07/08 08:19:46;;;;;;;11.40;7.70;;;;;;;27.94;46.97;98837.69;5048360;28;20029;-67
2021/07/08 08:22:11;;;;;;;7.15;5.75;;;;;;;27.78;47.52;98835.56;5046342;28;20028;-67
2021/07/08 08:24:40;;;;;;;8.57;5.80;;;;;;;27.99;46.78;98828.44;5044964;28;20020;-67
2021/07/08 08:27:06;;;;;;;7.03;6.07;;;;;;;28.03;47.71;98835.09;5045695;28;20029;-68
2021/07/08 08:29:32;;;;;;;6.63;6.05;;;;;;;28.15;47.01;98834.06;5044088;28;20151;-71
2021/07/08 08:31:58;;;;;;;5.85;5.22;;;;;;;28.05;47.54;98840.25;5044456;28;20028;-68
2021/07/08 08:34:23;;;;;;;7.45;6.00;;;;;;;28.13;47.37;98843.06;5044966;28;20035;-68
2021/07/08 08:36:48;;;;;;;7.60;6.53;;;;;;;28.17;47.56;98841.84;5044152;28;20032;-67
2021/07/08 08:39:14;;;;;;;5.70;5.30;;;;;;;28.29;47.27;98853.09;5047007;28;20365;-68
2021/07/08 08:41:40;;;;;;;6.13;5.63;;;;;;;28.09;47.06;98850.41;5045682;28;20143;-67
2021/07/08 08:44:06;;;;;;;7.00;5.72;;;;;;;27.65;47.80;98846.31;5044003;28;20032;-68
2021/07/08 08:46:34;;;;;;;7.10;6.55;;;;;;;27.81;47.65;98845.81;5046133;28;20021;-66
2021/07/08 08:49:04;;;;;;;7.05;5.50;;;;;;;28.01;47.15;98838.81;5042182;28;20032;-67
2021/07/08 08:51:30;;;;;;;5.80;5.40;;;;;;;28.16;47.46;98845.44;5042813;28;20491;-67
2021/07/08 08:53:56;;;;;;;6.32;5.93;;;;;;;27.98;47.63;98842.56;5045676;28;20036;-68
2021/07/08 08:56:21;;;;;;;6.10;5.60;;;;;;;28.21;47.57;98842.41;5045335;28;20036;-67
2021/07/08 08:58:47;;;;;;;7.05;6.45;;;;;;;28.39;47.75;98831.03;5042472;28;20358;-67
2021/07/08 09:01:19;;;;;;;7.68;7.15;;;;;;;28.53;47.42;98824.53;5045967;28;20477;-68
2021/07/08 09:03:45;;;;;;;6.78;6.28;;;;;;;28.57;46.59;98829.41;5046176;28;20037;-68
2021/07/08 09:06:15;;;;;;;6.20;5.80;;;;;;;28.82;47.00;98837.78;5048106;28;20370;-68
2021/07/08 09:08:47;;;;;;;6.57;5.93;;;;;;;28.84;46.55;98827.94;5044259;28;20060;-67
2021/07/08 09:11:24;;;;;;;6.55;6.07;;;;;;;29.05;46.65;98810.97;5047582;28;20021;-67
2021/07/08 09:14:04;;;;;;;7.50;6.53;;;;;;;28.99;46.60;98806.22;5048946;28;20021;-66
2021/07/08 09:16:37;;;;;;;7.30;6.07;;;;;;;29.27;46.77;98801.06;5052144;28;20037;-67
2021/07/08 09:19:19;;;;;;;6.53;6.03;;;;;;;29.49;46.46;98800.75;5049933;28;20041;-68
2021/07/08 09:21:51;;;;;;;6.70;6.28;;;;;;;29.60;47.44;98800.56;5049508;28;20016;-68
2021/07/08 09:24:17;;;;;;;6.82;6.20;;;;;;;29.59;45.39;98793.63;5052362;28;20309;-67
2021/07/08 09:27:04;;;;;;;6.05;5.65;;;;;;;29.70;45.21;98793.44;5051502;28;20021;-67
2021/07/08 09:29:35;;;;;;;6.07;5.53;;;;;;;29.87;45.00;98794.50;5052948;28;20028;-67
2021/07/08 09:32:05;;;;;;;7.03;6.43;;;;;;;30.09;44.50;98793.25;5049979;28;20599;-67
2021/07/08 09:34:36;;;;;;;7.10;5.95;;;;;;;30.17;44.98;98788.88;5050767;28;20389;-68
2021/07/08 09:37:10;;;;;;;6.55;5.88;;;;;;;30.38;44.18;98792.09;5050556;28;20029;-68
2021/07/08 09:39:53;;;;;;;6.40;6.00;;;;;;;30.49;44.10;98785.78;5048118;28;20047;-67
2021/07/08 09:42:46;;;;;;;6.35;5.85;;;;;;;30.72;44.60;98773.75;5047894;28;20058;-68
2021/07/08 09:45:14;;;;;;;6.25;5.75;;;;;;;30.76;43.15;98769.84;5064177;28;20020;-68
2021/07/08 09:47:43;;;;;;;6.57;5.97;;;;;;;30.56;43.66;98763.03;5049164;28;20021;-68
2021/07/08 09:50:13;;;;;;;9.57;6.28;;;;;;;30.80;43.37;98768.53;5049396;28;20379;-66
2021/07/08 09:52:41;;;;;;;6.50;5.90;;;;;;;30.90;43.39;98768.44;5047844;28;20033;-66
2021/07/08 09:57:47;;;;;;;7.72;6.95;;;;;;;31.00;45.04;98763.09;5049612;28;20029;-67
2021/07/08 10:00:18;;;;;;;7.07;6.47;;;;;;;31.30;42.35;98757.31;5052510;28;20029;-66
2021/07/08 10:02:45;;;;;;;7.38;6.65;;;;;;;31.27;42.61;98752.34;5050690;28;20059;-66
2021/07/08 10:05:10;;;;;;;6.88;6.28;;;;;;;31.64;42.46;98744.09;5051763;28;20028;-67
2021/07/08 10:07:37;;;;;;;7.55;6.63;;;;;;;31.61;42.82;98742.63;5046405;28;20025;-67
2021/07/08 10:10:04;;;;;;;8.25;7.32;;;;;;;31.88;42.08;98740.69;5049724;28;20332;-67
2021/07/08 10:12:30;;;;;;;9.38;7.10;;;;;;;32.02;41.52;98740.09;5051226;28;20031;-69
2021/07/08 10:15:00;;;;;;;7.25;6.47;;;;;;;32.11;41.45;98734.69;5048122;28;20028;-68
2021/07/08 10:17:30;;;;;;;7.40;6.90;;;;;;;32.09;41.32;98734.00;5038512;28;20040;-68
2021/07/08 10:19:57;;;;;;;7.30;6.70;;;;;;;32.12;41.39;98725.69;5050161;28;20467;-68
2021/07/08 10:22:23;;;;;;;7.18;6.75;;;;;;;32.17;41.81;98711.94;5047228;28;20313;-68
2021/07/08 10:24:49;;;;;;;7.15;6.65;;;;;;;32.24;40.75;98706.84;5046613;28;20656;-69
2021/07/08 10:27:17;;;;;;;8.93;6.68;;;;;;;32.54;40.54;98704.38;5049041;28;20028;-68
2021/07/08 10:29:44;;;;;;;6.97;6.47;;;;;;;32.54;40.75;98698.22;5047458;28;20282;-68
2021/07/08 10:32:13;;;;;;;6.85;6.25;;;;;;;32.60;40.16;98698.38;5049020;28;20040;-68
2021/07/08 10:34:50;;;;;;;7.55;6.78;;;;;;;32.84;40.05;98686.13;5047565;28;20025;-68
2021/07/08 10:37:32;;;;;;;8.15;7.65;;;;;;;32.99;40.18;98671.13;5047596;28;20029;-69
2021/07/08 10:40:00;;;;;;;7.50;6.93;;;;;;;33.11;39.38;98668.94;5047957;28;20060;-68
2021/07/08 10:42:46;;;;;;;7.40;6.72;;;;;;;32.92;39.95;98662.19;5046553;28;20026;-70
2021/07/08 10:45:26;;;;;;;7.45;6.95;;;;;;;33.25;39.09;98644.34;5048552;28;20162;-73
2021/07/08 10:48:08;;;;;;;6.55;6.05;;;;;;;33.17;38.87;98647.88;5048767;28;20409;-69
2021/07/08 10:50:42;;;;;;;6.90;6.40;;;;;;;33.23;39.47;98641.84;5046053;28;20422;-69
2021/07/08 10:53:32;;;;;;;7.78;6.97;;;;;;;33.44;38.81;98636.75;5044434;28;20029;-68
2021/07/08 10:56:07;;;;;;;7.38;6.78;;;;;;;33.71;37.17;98624.03;5043631;28;20037;-69
2021/07/08 10:58:47;;;;;;;6.55;6.05;;;;;;;34.17;37.07;98625.72;5044561;28;20073;-69
2021/07/08 11:01:22;;;;;;;7.15;6.50;;;;;;;34.49;36.32;98624.63;5048318;28;20700;-70
2021/07/08 11:04:08;;;;;;;6.43;5.90;;;;;;;34.56;35.77;98630.03;5047433;28;20075;-69
2021/07/08 11:06:34;;;;;;;10.52;6.43;;;;;;;34.67;35.89;98622.44;5050963;28;20397;-68
2021/07/08 11:09:05;;;;;;;5.90;5.40;;;;;;;34.71;34.67;98623.75;5047669;28;20325;-68
2021/07/08 11:11:34;;;;;;;6.70;6.03;;;;;;;34.50;35.08;98618.25;5046241;28;20392;-68
2021/07/08 11:14:11;;;;;;;10.55;6.07;;;;;;;34.22;36.97;98626.00;5046503;28;20021;-66
2021/07/08 11:16:44;;;;;;;6.68;5.80;;;;;;;34.28;35.88;98622.66;5045831;28;20063;-67
2021/07/08 11:19:13;;;;;;;6.15;5.70;;;;;;;34.41;36.29;98616.72;5049360;28;20256;-68
2021/07/08 11:21:51;;;;;;;6.38;5.80;;;;;;;34.74;35.07;98612.75;5047416;28;20029;-68
2021/07/08 11:24:17;;;;;;;10.15;5.60;;;;;;;34.79;34.88;98618.34;5046895;28;20029;-69
2021/07/08 11:27:03;;;;;;;6.63;5.97;;;;;;;34.84;33.04;98623.13;5045390;28;20025;-70
2021/07/08 11:29:51;;;;;;;6.50;5.65;;;;;;;35.01;32.37;98605.91;5047118;28;20032;-67
2021/07/08 11:32:36;;;;;;;8.90;6.60;;;;;;;35.26;31.53;98620.63;5046740;28;20069;-67
2021/07/08 11:35:42;;;;;;;7.70;7.07;;;;;;;35.26;30.71;98606.50;5052402;28;20021;-68
2021/07/08 11:38:14;;;;;;;8.13;7.57;;;;;;;35.62;30.22;98593.97;5045023;28;20397;-68
2021/07/08 11:40:47;;;;;;;8.10;7.40;;;;;;;35.67;28.92;98596.13;5047258;28;20463;-67
2021/07/08 11:43:26;;;;;;;9.88;9.10;;;;;;;35.56;30.64;98601.94;5049692;28;20116;-67
2021/07/08 11:45:54;;;;;;;9.43;8.82;;;;;;;35.74;29.70;98597.00;5046730;28;20717;-69